createdAt,value
2022-11-05T00:00:32.105Z,9.43
2022-11-05T00:03:17.574Z,9.73
2022-11-05T00:06:05.281Z,11.70
2022-11-05T00:08:50.619Z,13.18
2022-11-05T00:11:18.407Z,15.60
2022-11-05T00:14:11.764Z,16.13
2022-11-05T00:16:47.420Z,16.52
2022-11-05T00:19:15.044Z,14.77
2022-11-05T00:22:00.500Z,15.85
2022-11-05T00:27:12.239Z,13.20
2022-11-05T00:29:38.876Z,11.75
2022-11-05T00:32:05.643Z,11.52
2022-11-05T00:34:32.288Z,11.05
2022-11-05T00:36:59.060Z,12.50
2022-11-05T00:39:25.738Z,13.68
2022-11-05T00:42:24.590Z,13.25
2022-11-05T00:45:03.149Z,15.18
2022-11-05T00:47:50.447Z,22.83
2022-11-05T00:50:18.210Z,20.20
2022-11-05T00:52:57.345Z,14.70
2022-11-05T00:55:56.737Z,13.45
2022-11-05T00:58:24.281Z,15.10
2022-11-05T01:00:53.981Z,13.65
2022-11-05T01:03:23.223Z,14.00
2022-11-05T01:05:52.875Z,10.57
2022-11-05T01:08:21.905Z,15.55
2022-11-05T01:10:55.097Z,11.32
2022-11-05T01:13:24.528Z,12.10
2022-11-05T01:15:51.667Z,10.98
2022-11-05T01:18:19.846Z,13.40
2022-11-05T01:20:46.687Z,11.07
2022-11-05T01:23:14.106Z,12.07
2022-11-05T01:25:44.756Z,12.68
2022-11-05T01:28:11.597Z,12.35
2022-11-05T01:30:38.712Z,12.10
2022-11-05T01:33:05.759Z,15.23
2022-11-05T01:35:32.430Z,17.52
2022-11-05T01:37:59.129Z,17.80
2022-11-05T01:40:26.542Z,21.80
2022-11-05T01:42:53.162Z,19.52
2022-11-05T01:45:27.603Z,21.08
2022-11-05T01:48:09.429Z,18.02
2022-11-05T01:50:48.273Z,13.65
2022-11-05T01:53:51.114Z,14.05
2022-11-05T01:56:41.223Z,12.30
2022-11-05T01:59:13.168Z,12.73
2022-11-05T02:01:39.957Z,17.20
2022-11-05T02:04:10.336Z,16.63
2022-11-05T02:06:46.418Z,16.48
2022-11-05T02:09:20.848Z,16.67
2022-11-05T02:11:48.525Z,16.13
2022-11-05T02:14:15.202Z,14.82
2022-11-05T02:16:48.934Z,15.27
2022-11-05T02:19:30.396Z,12.48
2022-11-05T02:22:10.124Z,14.50
2022-11-05T02:25:15.116Z,15.52
2022-11-05T02:28:00.199Z,13.98
2022-11-05T02:30:42.269Z,14.77
2022-11-05T02:33:20.806Z,14.43
2022-11-05T02:36:06.448Z,14.60
2022-11-05T02:38:42.025Z,17.25
2022-11-05T02:41:12.641Z,22.10
2022-11-05T02:44:22.308Z,25.77
2022-11-05T02:46:56.898Z,14.52
2022-11-05T02:49:39.176Z,15.02
2022-11-05T02:52:14.835Z,16.50
2022-11-05T02:54:57.089Z,13.15
2022-11-05T02:57:24.446Z,12.23
2022-11-05T03:00:08.828Z,12.60
2022-11-05T03:02:35.822Z,12.73
2022-11-05T03:05:03.566Z,14.00
2022-11-05T03:07:48.586Z,11.77
2022-11-05T03:10:27.489Z,13.18
2022-11-05T03:13:09.722Z,14.63
2022-11-05T03:15:51.526Z,11.50
2022-11-05T03:18:35.545Z,12.45
2022-11-05T03:21:25.371Z,12.10
2022-11-05T03:24:03.581Z,14.40
2022-11-05T03:26:46.347Z,15.77
2022-11-05T03:29:19.892Z,16.13
2022-11-05T03:31:49.498Z,14.15
2022-11-05T03:34:19.718Z,11.10
2022-11-05T03:36:52.014Z,12.00
2022-11-05T03:39:26.750Z,12.43
2022-11-05T03:41:54.182Z,14.02
2022-11-05T03:44:27.456Z,14.73
2022-11-05T03:46:58.761Z,13.02
2022-11-05T03:49:29.721Z,10.93
2022-11-05T03:52:05.024Z,9.80
2022-11-05T03:54:33.017Z,9.43
2022-11-05T03:57:08.698Z,10.13
2022-11-05T03:59:46.831Z,12.70
2022-11-05T04:02:15.671Z,13.43
2022-11-05T04:04:42.865Z,13.32
2022-11-05T04:07:29.695Z,13.63
2022-11-05T04:10:15.770Z,14.57
2022-11-05T04:13:00.910Z,13.07
2022-11-05T04:15:29.657Z,16.80
2022-11-05T04:17:59.048Z,18.13
2022-11-05T04:20:46.395Z,20.08
2022-11-05T04:23:31.618Z,19.63
2022-11-05T04:25:58.295Z,17.23
2022-11-05T04:28:44.965Z,20.52
2022-11-05T04:31:12.119Z,19.52
2022-11-05T04:33:38.735Z,20.52
2022-11-05T04:36:05.625Z,20.52
2022-11-05T04:38:32.268Z,11.30
2022-11-05T04:41:13.723Z,13.07
2022-11-05T04:43:40.447Z,12.07
2022-11-05T04:46:08.346Z,11.93
2022-11-05T04:48:35.181Z,14.52
2022-11-05T04:51:01.860Z,11.57
2022-11-05T04:53:28.581Z,11.95
2022-11-05T04:55:55.354Z,11.90
2022-11-05T04:58:22.042Z,11.25
2022-11-05T05:00:50.129Z,12.77
2022-11-05T05:03:16.765Z,13.43
2022-11-05T05:05:43.445Z,14.07
2022-11-05T05:08:10.061Z,13.73
2022-11-05T05:10:36.928Z,15.38
2022-11-05T05:13:03.617Z,14.80
2022-11-05T05:15:30.617Z,17.40
2022-11-05T05:17:57.386Z,18.50
2022-11-05T05:20:53.151Z,17.52
2022-11-05T05:25:46.317Z,20.88
2022-11-05T05:28:12.975Z,26.23
2022-11-05T05:30:39.616Z,24.38
2022-11-05T05:33:06.248Z,26.55
2022-11-05T05:35:32.889Z,26.27
2022-11-05T05:37:59.521Z,33.47
2022-11-05T05:40:26.226Z,29.90
2022-11-05T05:42:55.935Z,29.23
2022-11-05T05:45:22.647Z,28.23
2022-11-05T05:47:49.348Z,30.10
2022-11-05T05:50:16.017Z,31.60
2022-11-05T05:52:42.708Z,32.42
2022-11-05T05:55:12.610Z,28.25
2022-11-05T05:57:39.271Z,27.73
2022-11-05T06:00:06.531Z,25.90
2022-11-05T06:02:33.432Z,24.83
2022-11-05T06:05:00.218Z,24.13
2022-11-05T06:07:26.849Z,24.67
2022-11-05T06:09:53.440Z,22.90
2022-11-05T06:12:20.119Z,21.00
2022-11-05T06:14:46.783Z,21.95
2022-11-05T06:17:13.931Z,20.55
2022-11-05T06:19:40.573Z,18.67
2022-11-05T06:22:07.820Z,15.85
2022-11-05T06:24:34.544Z,17.10
2022-11-05T06:27:01.241Z,17.58
2022-11-05T06:29:27.971Z,20.40
2022-11-05T06:31:54.599Z,15.65
2022-11-05T06:34:21.269Z,20.75
2022-11-05T06:36:47.960Z,18.70
2022-11-05T06:39:14.647Z,15.65
2022-11-05T06:44:27.943Z,17.20
2022-11-05T06:46:54.646Z,17.73
2022-11-05T06:49:24.734Z,13.63
2022-11-05T06:51:52.709Z,14.13
2022-11-05T06:54:19.701Z,14.15
2022-11-05T06:56:46.372Z,12.93
2022-11-05T06:59:13.028Z,12.02
2022-11-05T07:01:39.996Z,11.10
2022-11-05T07:04:06.914Z,12.55
2022-11-05T07:06:37.148Z,13.38
2022-11-05T07:09:04.402Z,12.27
2022-11-05T07:11:31.297Z,13.80
2022-11-05T07:13:58.125Z,21.67
2022-11-05T07:16:27.077Z,18.02
2022-11-05T07:18:56.089Z,15.70
2022-11-05T07:21:23.462Z,13.75
2022-11-05T07:23:50.361Z,14.02
2022-11-05T07:26:17.242Z,14.77
2022-11-05T07:28:44.288Z,15.57
2022-11-05T07:31:10.928Z,19.77
2022-11-05T07:33:37.658Z,17.30
2022-11-05T07:36:04.891Z,8.82
2022-11-05T07:38:31.633Z,6.00
2022-11-05T07:41:01.668Z,4.63
2022-11-05T07:43:30.643Z,5.18
2022-11-05T07:45:57.777Z,5.00
2022-11-05T07:48:24.439Z,4.35
2022-11-05T07:50:52.028Z,4.07
2022-11-05T07:53:20.681Z,3.63
2022-11-05T07:55:50.532Z,4.15
2022-11-05T07:58:17.179Z,3.90
2022-11-05T08:00:44.353Z,3.53
2022-11-05T08:03:15.519Z,4.00
2022-11-05T08:05:47.279Z,3.92
2022-11-05T08:08:16.647Z,3.90
2022-11-05T08:10:43.820Z,4.32
2022-11-05T08:13:11.938Z,3.97
2022-11-05T08:15:39.191Z,3.20
2022-11-05T08:18:08.915Z,3.45
2022-11-05T08:20:36.342Z,3.40
2022-11-05T08:23:02.992Z,2.80
2022-11-05T08:25:29.949Z,3.30
2022-11-05T08:27:58.891Z,3.10
2022-11-05T08:30:25.997Z,2.70
2022-11-05T08:32:57.541Z,3.05
2022-11-05T08:35:24.656Z,3.30
2022-11-05T08:37:51.408Z,2.95
2022-11-05T08:40:18.092Z,3.55
2022-11-05T08:42:48.563Z,2.75
2022-11-05T08:45:15.386Z,2.67
2022-11-05T08:47:42.078Z,3.88
2022-11-05T08:50:09.921Z,2.53
2022-11-05T08:52:40.326Z,2.63
2022-11-05T08:55:09.997Z,3.10
2022-11-05T08:57:36.728Z,2.97
2022-11-05T09:00:04.067Z,2.70
2022-11-05T09:02:33.006Z,2.67
2022-11-05T09:04:59.720Z,2.60
2022-11-05T09:07:26.457Z,2.67
2022-11-05T09:09:53.173Z,2.42
2022-11-05T09:12:19.888Z,1.85
2022-11-05T09:14:46.553Z,2.67
2022-11-05T09:17:17.816Z,2.78
2022-11-05T09:19:44.900Z,2.30
2022-11-05T09:22:12.941Z,2.13
2022-11-05T09:24:40.949Z,2.95
2022-11-05T09:27:10.370Z,2.20
2022-11-05T09:29:38.048Z,2.08
2022-11-05T09:32:05.059Z,1.90
2022-11-05T09:34:32.987Z,2.30
2022-11-05T09:37:00.094Z,2.50
2022-11-05T09:39:26.933Z,2.00
2022-11-05T09:41:59.681Z,1.98
2022-11-05T09:44:43.909Z,2.25
2022-11-05T09:47:17.546Z,2.30
2022-11-05T09:49:52.524Z,2.28
2022-11-05T09:54:50.236Z,2.50
2022-11-05T09:57:21.640Z,2.38
2022-11-05T09:59:54.610Z,1.67
2022-11-05T10:02:26.024Z,2.10
2022-11-05T10:04:56.584Z,2.00
2022-11-05T10:07:29.601Z,2.15
2022-11-05T10:10:03.508Z,2.08
2022-11-05T10:12:46.200Z,2.33
2022-11-05T10:15:19.585Z,1.75
2022-11-05T10:17:59.026Z,2.30
2022-11-05T10:20:38.809Z,2.30
2022-11-05T10:23:28.460Z,1.98
2022-11-05T10:26:00.283Z,2.35
2022-11-05T10:28:29.864Z,2.15
2022-11-05T10:31:03.076Z,2.30
2022-11-05T10:33:39.836Z,1.90
2022-11-05T10:36:11.363Z,3.00
2022-11-05T10:38:38.132Z,2.50
2022-11-05T10:41:04.906Z,2.22
2022-11-05T10:43:36.473Z,2.13
2022-11-05T10:46:24.945Z,2.13
2022-11-05T10:49:04.125Z,1.60
2022-11-05T10:51:32.234Z,1.55
2022-11-05T10:54:06.236Z,1.77
2022-11-05T10:56:37.732Z,1.47
2022-11-05T10:59:18.862Z,1.88
2022-11-05T11:01:46.515Z,2.00
2022-11-05T11:04:22.956Z,1.65
2022-11-05T11:06:58.945Z,1.75
2022-11-05T11:09:32.894Z,1.95
2022-11-05T11:12:07.606Z,2.10
2022-11-05T11:14:35.319Z,1.65
2022-11-05T11:17:27.516Z,1.90
2022-11-05T11:20:27.983Z,2.03
2022-11-05T11:23:02.025Z,1.90
2022-11-05T11:25:35.909Z,2.30
2022-11-05T11:28:07.223Z,1.70
2022-11-05T11:30:35.474Z,1.95
2022-11-05T11:33:09.501Z,1.67
2022-11-05T11:35:39.491Z,2.38
2022-11-05T11:38:07.321Z,2.00
2022-11-05T11:40:38.042Z,2.45
2022-11-05T11:43:14.487Z,2.30
2022-11-05T11:45:50.963Z,2.30
2022-11-05T11:48:22.956Z,3.17
2022-11-05T11:50:49.899Z,2.83
2022-11-05T11:53:35.438Z,2.50
2022-11-05T11:56:09.685Z,2.13
2022-11-05T11:58:41.304Z,2.35
2022-11-05T12:01:36.857Z,2.50
2022-11-05T12:04:10.267Z,2.63
2022-11-05T12:06:50.561Z,2.97
2022-11-05T12:09:56.047Z,3.38
2022-11-05T12:12:49.325Z,2.92
2022-11-05T12:15:51.225Z,2.85
2022-11-05T12:18:39.896Z,3.17
2022-11-05T12:21:48.034Z,3.90
2022-11-05T12:25:01.105Z,3.70
2022-11-05T12:27:46.702Z,2.83
2022-11-05T12:30:19.153Z,2.90
2022-11-05T12:33:04.675Z,3.03
2022-11-05T12:35:57.588Z,3.67
2022-11-05T12:38:52.758Z,3.33
2022-11-05T12:41:43.155Z,3.40
2022-11-05T12:44:29.204Z,3.38
2022-11-05T12:47:33.876Z,3.30
2022-11-05T12:50:12.643Z,4.53
2022-11-05T12:52:58.187Z,3.08
2022-11-05T12:55:27.361Z,3.13
2022-11-05T12:58:03.891Z,2.75
2022-11-05T13:00:38.735Z,2.97
2022-11-05T13:03:26.312Z,3.40
2022-11-05T13:06:01.475Z,3.42
2022-11-05T13:08:56.686Z,3.40
2022-11-05T13:11:26.587Z,2.35
2022-11-05T13:14:23.519Z,3.38
2022-11-05T13:16:55.870Z,3.53
2022-11-05T13:19:31.226Z,2.83
2022-11-05T13:22:14.233Z,2.72
2022-11-05T13:24:54.573Z,3.60
2022-11-05T13:27:48.463Z,5.85
2022-11-05T13:30:28.324Z,3.15
2022-11-05T13:33:10.951Z,2.65
2022-11-05T13:36:35.050Z,4.03
2022-11-05T13:39:21.542Z,3.15
2022-11-05T13:42:06.352Z,3.45
2022-11-05T13:45:08.036Z,3.00
2022-11-05T13:48:00.862Z,4.03
2022-11-05T13:51:09.491Z,2.00
2022-11-05T13:53:55.013Z,3.47
2022-11-05T13:56:27.363Z,3.53
2022-11-05T13:59:00.754Z,3.28
2022-11-05T14:01:45.608Z,2.97
2022-11-05T14:05:06.403Z,3.05
2022-11-05T14:07:44.533Z,3.60
2022-11-05T14:10:26.799Z,4.90
2022-11-05T14:12:56.659Z,3.97
2022-11-05T14:15:32.694Z,3.63
2022-11-05T14:18:01.178Z,3.40
2022-11-05T14:20:31.192Z,7.93
2022-11-05T14:23:26.108Z,6.55
2022-11-05T14:26:33.176Z,3.77
2022-11-05T14:29:03.251Z,3.80
2022-11-05T14:32:07.084Z,3.97
2022-11-05T14:34:43.261Z,4.05
2022-11-05T14:37:09.857Z,3.25
2022-11-05T14:39:37.158Z,4.55
2022-11-05T14:42:17.715Z,4.45
2022-11-05T14:45:19.827Z,5.38
2022-11-05T14:47:59.217Z,4.20
2022-11-05T14:50:33.754Z,4.95
2022-11-05T14:53:25.863Z,4.65
2022-11-05T14:56:22.634Z,4.55
2022-11-05T14:58:49.279Z,9.77
2022-11-05T15:01:15.985Z,8.02
2022-11-05T15:03:46.422Z,6.43
2022-11-05T15:06:32.198Z,7.18
2022-11-05T15:09:29.041Z,7.32
2022-11-05T15:11:55.807Z,7.47
2022-11-05T15:14:42.545Z,5.63
2022-11-05T15:17:33.245Z,10.70
2022-11-05T15:20:23.925Z,9.90
2022-11-05T15:22:59.696Z,15.68
2022-11-05T15:26:04.030Z,16.52
2022-11-05T15:28:38.925Z,18.88
2022-11-05T15:33:43.191Z,25.73
2022-11-05T15:36:29.203Z,20.10
2022-11-05T15:39:23.321Z,22.40
2022-11-05T15:41:45.447Z,21.95
2022-11-05T15:44:46.221Z,15.77
2022-11-05T15:47:20.935Z,17.13
2022-11-05T15:49:53.597Z,17.33
2022-11-05T15:52:23.251Z,21.75
2022-11-05T15:55:14.965Z,23.05
2022-11-05T15:57:51.002Z,19.83
2022-11-05T16:00:27.054Z,20.15
2022-11-05T16:02:55.513Z,24.33
2022-11-05T16:05:24.321Z,20.85
2022-11-05T16:07:51.458Z,23.65
2022-11-05T16:10:25.290Z,21.33
2022-11-05T16:12:52.341Z,24.15
2022-11-05T16:15:23.288Z,24.98
2022-11-05T16:17:53.561Z,25.08
2022-11-05T16:20:23.445Z,27.30
2022-11-05T16:22:54.056Z,29.17
2022-11-05T16:25:37.063Z,27.98
2022-11-05T16:28:06.751Z,17.00
2022-11-05T16:30:33.628Z,18.20
2022-11-05T16:33:06.277Z,15.75
2022-11-05T16:35:33.268Z,14.10
2022-11-05T16:38:02.060Z,14.63
2022-11-05T16:40:29.593Z,19.58
2022-11-05T16:43:09.748Z,49.65
2022-11-05T16:45:41.457Z,40.03
2022-11-05T16:48:12.128Z,31.08
2022-11-05T16:50:39.533Z,29.10
2022-11-05T16:53:06.793Z,30.50
2022-11-05T16:55:37.880Z,28.75
2022-11-05T16:58:04.865Z,26.35
2022-11-05T17:00:31.576Z,26.27
2022-11-05T17:02:58.419Z,22.38
2022-11-05T17:05:31.268Z,22.85
2022-11-05T17:07:58.665Z,23.90
2022-11-05T17:10:26.335Z,26.85
2022-11-05T17:12:54.227Z,27.25
2022-11-05T17:15:23.376Z,23.77
2022-11-05T17:17:51.051Z,24.60
2022-11-05T17:20:34.991Z,28.45
2022-11-05T17:23:13.452Z,31.38
2022-11-05T17:28:10.336Z,37.13
2022-11-05T17:30:41.187Z,24.63
2022-11-05T17:33:09.878Z,46.17
2022-11-05T17:35:40.781Z,38.95
2022-11-05T17:38:08.524Z,38.58
2022-11-05T17:40:36.679Z,33.00
2022-11-05T17:43:04.952Z,33.90
2022-11-05T17:45:32.929Z,28.15
2022-11-05T17:48:00.495Z,32.15
2022-11-05T17:50:27.508Z,25.45
2022-11-05T17:52:54.439Z,24.33
2022-11-05T17:55:21.667Z,38.63
2022-11-05T17:57:50.794Z,52.50
2022-11-05T18:00:24.313Z,60.05
2022-11-05T18:02:53.559Z,44.58
2022-11-05T18:05:22.330Z,53.85
2022-11-05T18:07:50.393Z,37.88
2022-11-05T18:10:17.524Z,37.22
2022-11-05T18:12:44.587Z,38.20
2022-11-05T18:15:12.683Z,55.10
2022-11-05T18:17:40.283Z,66.38
2022-11-05T18:20:14.216Z,66.93
2022-11-05T18:22:45.142Z,91.50
2022-11-05T18:25:13.702Z,46.33
2022-11-05T18:27:40.923Z,44.13
2022-11-05T18:30:09.133Z,50.03
2022-11-05T18:32:36.225Z,136.05
2022-11-05T18:35:03.065Z,73.90
2022-11-05T18:37:29.768Z,64.95
2022-11-05T18:39:56.410Z,35.55
2022-11-05T18:42:23.250Z,45.85
2022-11-05T18:44:49.916Z,39.63
2022-11-05T18:47:16.598Z,28.60
2022-11-05T18:49:43.387Z,30.48
2022-11-05T18:52:10.089Z,34.33
2022-11-05T18:54:36.839Z,41.00
2022-11-05T18:57:03.600Z,47.50
2022-11-05T18:59:39.513Z,43.92
2022-11-05T19:02:08.888Z,45.05
2022-11-05T19:04:37.296Z,60.03
2022-11-05T19:07:05.340Z,54.22
2022-11-05T19:09:33.829Z,59.83
2022-11-05T19:12:00.926Z,37.55
2022-11-05T19:14:28.015Z,32.53
2022-11-05T19:16:54.677Z,26.10
2022-11-05T19:19:21.586Z,37.08
2022-11-05T19:21:48.261Z,28.15
2022-11-05T19:24:17.944Z,41.30
2022-11-05T19:26:44.788Z,36.88
2022-11-05T19:29:11.681Z,35.30
2022-11-05T19:31:38.728Z,39.38
2022-11-05T19:34:06.007Z,23.42
2022-11-05T19:36:33.587Z,22.75
2022-11-05T19:39:02.483Z,19.92
2022-11-05T19:41:29.232Z,16.73
2022-11-05T19:43:58.107Z,25.48
2022-11-05T19:46:25.772Z,21.77
2022-11-05T19:48:52.547Z,28.60
2022-11-05T19:51:25.298Z,22.95
2022-11-05T19:53:52.988Z,22.35
2022-11-05T19:56:25.299Z,22.55
2022-11-05T19:58:53.398Z,19.45
2022-11-05T20:01:22.052Z,18.52
2022-11-05T20:03:49.337Z,17.27
2022-11-05T20:06:20.287Z,18.98
2022-11-05T20:09:19.518Z,18.73
2022-11-05T20:11:39.313Z,21.52
2022-11-05T20:14:07.112Z,21.98
2022-11-05T20:16:38.269Z,25.50
2022-11-05T20:19:07.440Z,38.85
2022-11-05T20:21:35.089Z,32.92
2022-11-05T20:24:02.561Z,27.77
2022-11-05T20:26:30.027Z,29.98
2022-11-05T20:28:56.733Z,25.02
2022-11-05T20:31:27.523Z,15.75
2022-11-05T20:33:54.577Z,16.25
2022-11-05T20:36:23.093Z,18.75
2022-11-05T20:38:51.455Z,19.73
2022-11-05T20:41:18.973Z,22.42
2022-11-05T20:43:46.883Z,23.42
2022-11-05T20:46:16.887Z,22.75
2022-11-05T20:48:44.595Z,23.35
2022-11-05T20:51:15.747Z,21.00
2022-11-05T20:53:43.394Z,18.70
2022-11-05T20:56:20.079Z,17.88
2022-11-05T20:58:47.479Z,20.80
2022-11-05T21:01:16.658Z,19.15
2022-11-05T21:03:45.414Z,20.23
2022-11-05T21:06:13.433Z,21.08
2022-11-05T21:08:40.192Z,22.13
2022-11-05T21:11:07.390Z,25.48
2022-11-05T21:13:34.787Z,25.75
2022-11-05T21:16:02.085Z,25.85
2022-11-05T21:18:31.402Z,28.92
2022-11-05T21:21:00.520Z,35.47
2022-11-05T21:23:28.400Z,29.88
2022-11-05T21:25:55.474Z,36.72
2022-11-05T21:28:22.227Z,27.67
2022-11-05T21:30:49.261Z,31.45
2022-11-05T21:33:17.864Z,30.52
2022-11-05T21:35:47.943Z,32.28
2022-11-05T21:38:16.671Z,29.10
2022-11-05T21:40:44.398Z,29.92
2022-11-05T21:43:12.029Z,30.90
2022-11-05T21:45:40.152Z,28.77
2022-11-05T21:48:07.826Z,34.08
2022-11-05T21:50:54.137Z,31.50
2022-11-05T21:53:39.448Z,37.63
2022-11-05T21:56:26.720Z,32.83
2022-11-05T21:59:11.758Z,33.55
2022-11-05T22:01:38.589Z,35.97
2022-11-05T22:04:05.273Z,21.05
2022-11-05T22:06:35.025Z,17.95
2022-11-05T22:09:02.227Z,17.80
2022-11-05T22:11:28.856Z,18.67
2022-11-05T22:13:55.544Z,21.60
2022-11-05T22:16:22.147Z,25.08
2022-11-05T22:18:48.821Z,25.05
2022-11-05T22:21:18.297Z,18.48
2022-11-05T22:23:45.092Z,20.90
2022-11-05T22:26:11.813Z,21.48
2022-11-05T22:28:38.422Z,15.27
2022-11-05T22:31:12.024Z,18.35
2022-11-05T22:33:38.740Z,16.77
2022-11-05T22:36:05.746Z,19.02
2022-11-05T22:38:32.462Z,19.35
2022-11-05T22:40:59.095Z,21.33
2022-11-05T22:43:25.759Z,19.70
2022-11-05T22:45:52.416Z,15.93
2022-11-05T22:48:19.040Z,22.45
2022-11-05T22:50:45.740Z,19.90
2022-11-05T22:53:12.381Z,18.33
2022-11-05T22:55:39.815Z,12.98
2022-11-05T22:58:06.469Z,16.52
2022-11-05T23:00:36.216Z,15.93
2022-11-05T23:03:03.253Z,14.38
2022-11-05T23:05:30.123Z,17.63
2022-11-05T23:08:15.647Z,17.45
2022-11-05T23:11:01.083Z,15.02
2022-11-05T23:13:27.764Z,13.38
2022-11-05T23:16:12.717Z,12.45
2022-11-05T23:19:02.446Z,14.00
2022-11-05T23:21:47.356Z,13.77
2022-11-05T23:24:14.304Z,13.80
2022-11-05T23:26:50.057Z,14.63
2022-11-05T23:29:27.316Z,19.17
2022-11-05T23:32:13.266Z,15.60
2022-11-05T23:34:40.281Z,15.07
2022-11-05T23:37:25.871Z,17.92
2022-11-05T23:39:53.972Z,24.45
2022-11-05T23:42:39.491Z,17.15
2022-11-05T23:48:10.497Z,14.52
2022-11-05T23:50:39.923Z,13.07
2022-11-05T23:53:08.766Z,14.05
2022-11-05T23:55:36.251Z,12.77
2022-11-05T23:58:02.946Z,12.07
